sensor_id;sensor_type;location;lat;lon;timestamp;P1;durP1;ratioP1;P2;durP2;ratioP2
19404;SDS011;9838;49.384;8.292;2023-06-10T00:08:05;2.63;;;1.83;;
19404;SDS011;9838;49.384;8.292;2023-06-10T00:18:08;2.78;;;1.95;;
19404;SDS011;9838;49.384;8.292;2023-06-10T00:28:10;2.80;;;2.10;;
19404;SDS011;9838;49.384;8.292;2023-06-10T00:38:13;3.88;;;2.40;;
19404;SDS011;9838;49.384;8.292;2023-06-10T00:48:18;3.90;;;2.27;;
19404;SDS011;9838;49.384;8.292;2023-06-10T00:58:20;2.92;;;2.10;;
19404;SDS011;9838;49.384;8.292;2023-06-10T01:08:28;2.93;;;2.00;;
19404;SDS011;9838;49.384;8.292;2023-06-10T01:18:33;2.93;;;2.10;;
19404;SDS011;9838;49.384;8.292;2023-06-10T01:28:36;3.27;;;2.30;;
19404;SDS011;9838;49.384;8.292;2023-06-10T01:38:46;3.27;;;2.20;;
19404;SDS011;9838;49.384;8.292;2023-06-10T01:48:49;3.47;;;2.22;;
19404;SDS011;9838;49.384;8.292;2023-06-10T01:58:50;2.67;;;1.95;;
19404;SDS011;9838;49.384;8.292;2023-06-10T02:08:55;2.80;;;2.00;;
19404;SDS011;9838;49.384;8.292;2023-06-10T02:18:57;3.27;;;2.13;;
19404;SDS011;9838;49.384;8.292;2023-06-10T02:28:59;2.72;;;2.00;;
19404;SDS011;9838;49.384;8.292;2023-06-10T02:39:02;3.80;;;2.00;;
19404;SDS011;9838;49.384;8.292;2023-06-10T02:49:05;3.75;;;2.35;;
19404;SDS011;9838;49.384;8.292;2023-06-10T02:59:08;2.80;;;2.27;;
19404;SDS011;9838;49.384;8.292;2023-06-10T03:09:11;2.67;;;1.98;;
19404;SDS011;9838;49.384;8.292;2023-06-10T03:19:16;2.43;;;1.97;;
19404;SDS011;9838;49.384;8.292;2023-06-10T03:29:23;2.80;;;2.00;;
19404;SDS011;9838;49.384;8.292;2023-06-10T03:39:25;2.70;;;2.00;;
19404;SDS011;9838;49.384;8.292;2023-06-10T03:49:31;7.80;;;4.17;;
19404;SDS011;9838;49.384;8.292;2023-06-10T03:59:36;2.77;;;2.10;;
19404;SDS011;9838;49.384;8.292;2023-06-10T04:09:38;2.83;;;2.13;;
19404;SDS011;9838;49.384;8.292;2023-06-10T04:19:40;3.07;;;2.10;;
19404;SDS011;9838;49.384;8.292;2023-06-10T04:29:42;3.05;;;2.00;;
19404;SDS011;9838;49.384;8.292;2023-06-10T04:39:44;3.38;;;1.83;;
19404;SDS011;9838;49.384;8.292;2023-06-10T04:49:46;4.73;;;2.40;;
19404;SDS011;9838;49.384;8.292;2023-06-10T04:59:49;4.03;;;2.13;;
19404;SDS011;9838;49.384;8.292;2023-06-10T05:09:51;2.67;;;1.97;;
19404;SDS011;9838;49.384;8.292;2023-06-10T05:19:52;2.95;;;2.08;;
19404;SDS011;9838;49.384;8.292;2023-06-10T05:29:54;3.53;;;1.98;;
19404;SDS011;9838;49.384;8.292;2023-06-10T05:39:57;3.00;;;2.10;;
19404;SDS011;9838;49.384;8.292;2023-06-10T05:49:59;3.58;;;1.98;;
19404;SDS011;9838;49.384;8.292;2023-06-10T06:00:01;2.22;;;1.80;;
19404;SDS011;9838;49.384;8.292;2023-06-10T06:10:13;3.60;;;2.07;;
19404;SDS011;9838;49.384;8.292;2023-06-10T06:20:15;3.63;;;2.07;;
19404;SDS011;9838;49.384;8.292;2023-06-10T06:30:18;3.28;;;2.03;;
19404;SDS011;9838;49.384;8.292;2023-06-10T06:40:19;3.87;;;2.13;;
19404;SDS011;9838;49.384;8.292;2023-06-10T06:50:21;3.92;;;2.00;;
19404;SDS011;9838;49.384;8.292;2023-06-10T07:00:23;2.80;;;2.10;;
19404;SDS011;9838;49.384;8.292;2023-06-10T07:10:25;3.73;;;2.13;;
19404;SDS011;9838;49.384;8.292;2023-06-10T07:20:27;3.10;;;2.00;;
19404;SDS011;9838;49.384;8.292;2023-06-10T07:30:29;2.87;;;1.80;;
19404;SDS011;9838;49.384;8.292;2023-06-10T07:40:31;3.70;;;1.60;;
19404;SDS011;9838;49.384;8.292;2023-06-10T07:50:34;2.50;;;1.70;;
19404;SDS011;9838;49.384;8.292;2023-06-10T08:00:36;2.35;;;1.60;;
19404;SDS011;9838;49.384;8.292;2023-06-10T08:10:38;3.10;;;1.52;;
19404;SDS011;9838;49.384;8.292;2023-06-10T08:20:40;2.40;;;1.47;;
19404;SDS011;9838;49.384;8.292;2023-06-10T08:30:42;2.10;;;1.47;;
19404;SDS011;9838;49.384;8.292;2023-06-10T08:40:45;3.00;;;1.30;;
19404;SDS011;9838;49.384;8.292;2023-06-10T08:50:49;2.70;;;1.40;;
19404;SDS011;9838;49.384;8.292;2023-06-10T09:00:51;1.90;;;1.40;;
19404;SDS011;9838;49.384;8.292;2023-06-10T09:10:53;2.33;;;1.30;;
19404;SDS011;9838;49.384;8.292;2023-06-10T09:20:55;1.85;;;1.33;;
19404;SDS011;9838;49.384;8.292;2023-06-10T09:31:03;2.00;;;1.30;;
19404;SDS011;9838;49.384;8.292;2023-06-10T09:41:08;2.00;;;1.40;;
19404;SDS011;9838;49.384;8.292;2023-06-10T09:51:12;1.90;;;1.45;;
19404;SDS011;9838;49.384;8.292;2023-06-10T10:01:14;3.30;;;1.57;;
19404;SDS011;9838;49.384;8.292;2023-06-10T10:11:17;1.90;;;1.43;;
19404;SDS011;9838;49.384;8.292;2023-06-10T10:21:21;3.10;;;1.73;;
19404;SDS011;9838;49.384;8.292;2023-06-10T10:31:31;2.10;;;1.60;;
19404;SDS011;9838;49.384;8.292;2023-06-10T10:41:36;3.28;;;1.88;;
19404;SDS011;9838;49.384;8.292;2023-06-10T10:51:38;2.15;;;1.60;;
19404;SDS011;9838;49.384;8.292;2023-06-10T11:01:56;2.77;;;1.57;;
19404;SDS011;9838;49.384;8.292;2023-06-10T11:11:58;1.92;;;1.40;;
19404;SDS011;9838;49.384;8.292;2023-06-10T11:22:03;2.22;;;1.45;;
19404;SDS011;9838;49.384;8.292;2023-06-10T11:32:05;1.80;;;1.50;;
19404;SDS011;9838;49.384;8.292;2023-06-10T11:42:08;2.00;;;1.40;;
19404;SDS011;9838;49.384;8.292;2023-06-10T11:52:09;1.50;;;1.10;;
19404;SDS011;9838;49.384;8.292;2023-06-10T12:02:18;2.70;;;1.10;;
19404;SDS011;9838;49.384;8.292;2023-06-10T12:12:19;1.80;;;1.13;;
19404;SDS011;9838;49.384;8.292;2023-06-10T12:22:22;1.50;;;1.10;;
19404;SDS011;9838;49.384;8.292;2023-06-10T12:32:39;1.10;;;0.90;;
19404;SDS011;9838;49.384;8.292;2023-06-10T12:42:41;1.83;;;1.00;;
19404;SDS011;9838;49.384;8.292;2023-06-10T12:52:44;1.90;;;1.10;;
19404;SDS011;9838;49.384;8.292;2023-06-10T13:02:48;1.20;;;0.90;;
19404;SDS011;9838;49.384;8.292;2023-06-10T13:12:51;1.08;;;0.82;;
19404;SDS011;9838;49.384;8.292;2023-06-10T13:22:55;3.50;;;0.80;;
19404;SDS011;9838;49.384;8.292;2023-06-10T13:32:56;1.45;;;0.90;;
19404;SDS011;9838;49.384;8.292;2023-06-10T13:42:58;1.10;;;0.80;;
19404;SDS011;9838;49.384;8.292;2023-06-10T13:53:00;1.73;;;1.00;;
19404;SDS011;9838;49.384;8.292;2023-06-10T14:03:02;1.20;;;0.77;;
19404;SDS011;9838;49.384;8.292;2023-06-10T14:13:04;1.15;;;0.80;;
19404;SDS011;9838;49.384;8.292;2023-06-10T14:23:06;1.15;;;0.77;;
19404;SDS011;9838;49.384;8.292;2023-06-10T14:33:08;1.30;;;0.88;;
19404;SDS011;9838;49.384;8.292;2023-06-10T14:43:10;1.98;;;0.90;;
19404;SDS011;9838;49.384;8.292;2023-06-10T14:53:12;1.05;;;0.82;;
19404;SDS011;9838;49.384;8.292;2023-06-10T15:03:13;1.30;;;0.70;;
19404;SDS011;9838;49.384;8.292;2023-06-10T15:13:15;1.40;;;0.90;;
19404;SDS011;9838;49.384;8.292;2023-06-10T15:23:17;0.98;;;0.80;;
19404;SDS011;9838;49.384;8.292;2023-06-10T15:33:18;1.40;;;0.80;;
19404;SDS011;9838;49.384;8.292;2023-06-10T15:43:21;1.27;;;0.98;;
19404;SDS011;9838;49.384;8.292;2023-06-10T15:53:32;1.05;;;0.70;;
19404;SDS011;9838;49.384;8.292;2023-06-10T16:03:35;3.20;;;1.17;;
19404;SDS011;9838;49.384;8.292;2023-06-10T16:13:36;2.00;;;0.82;;
19404;SDS011;9838;49.384;8.292;2023-06-10T16:23:38;2.55;;;0.93;;
19404;SDS011;9838;49.384;8.292;2023-06-10T16:33:40;2.50;;;0.90;;
19404;SDS011;9838;49.384;8.292;2023-06-10T16:43:42;1.10;;;0.85;;
19404;SDS011;9838;49.384;8.292;2023-06-10T16:53:44;1.58;;;0.98;;
19404;SDS011;9838;49.384;8.292;2023-06-10T17:03:45;2.35;;;1.17;;
19404;SDS011;9838;49.384;8.292;2023-06-10T17:13:47;2.65;;;0.88;;
19404;SDS011;9838;49.384;8.292;2023-06-10T17:23:49;2.85;;;1.00;;
19404;SDS011;9838;49.384;8.292;2023-06-10T17:33:50;1.67;;;1.00;;
19404;SDS011;9838;49.384;8.292;2023-06-10T17:43:52;1.75;;;0.98;;
19404;SDS011;9838;49.384;8.292;2023-06-10T17:53:54;1.38;;;0.80;;
19404;SDS011;9838;49.384;8.292;2023-06-10T18:03:56;1.08;;;0.68;;
19404;SDS011;9838;49.384;8.292;2023-06-10T18:13:58;1.40;;;0.80;;
19404;SDS011;9838;49.384;8.292;2023-06-10T18:24:00;1.35;;;0.90;;
19404;SDS011;9838;49.384;8.292;2023-06-10T18:34:02;1.13;;;0.75;;
19404;SDS011;9838;49.384;8.292;2023-06-10T18:44:04;1.20;;;0.88;;
19404;SDS011;9838;49.384;8.292;2023-06-10T18:54:06;0.95;;;0.70;;
19404;SDS011;9838;49.384;8.292;2023-06-10T19:04:07;3.30;;;0.93;;
19404;SDS011;9838;49.384;8.292;2023-06-10T19:14:12;1.00;;;0.70;;
19404;SDS011;9838;49.384;8.292;2023-06-10T19:24:14;1.45;;;0.98;;
19404;SDS011;9838;49.384;8.292;2023-06-10T19:34:16;1.35;;;0.80;;
19404;SDS011;9838;49.384;8.292;2023-06-10T19:44:20;1.10;;;0.80;;
19404;SDS011;9838;49.384;8.292;2023-06-10T19:54:22;1.08;;;0.75;;
19404;SDS011;9838;49.384;8.292;2023-06-10T20:04:24;1.33;;;0.70;;
19404;SDS011;9838;49.384;8.292;2023-06-10T20:24:58;1.00;;;0.70;;
19404;SDS011;9838;49.384;8.292;2023-06-10T20:35:01;1.55;;;0.82;;
19404;SDS011;9838;49.384;8.292;2023-06-10T20:45:03;1.25;;;0.80;;
19404;SDS011;9838;49.384;8.292;2023-06-10T20:55:05;1.13;;;0.88;;
19404;SDS011;9838;49.384;8.292;2023-06-10T21:05:07;0.88;;;0.65;;
19404;SDS011;9838;49.384;8.292;2023-06-10T21:15:08;1.30;;;1.00;;
19404;SDS011;9838;49.384;8.292;2023-06-10T21:25:10;1.20;;;0.80;;
19404;SDS011;9838;49.384;8.292;2023-06-10T21:35:12;2.95;;;1.25;;
19404;SDS011;9838;49.384;8.292;2023-06-10T21:45:14;1.67;;;1.15;;
19404;SDS011;9838;49.384;8.292;2023-06-10T21:55:16;1.48;;;1.00;;
19404;SDS011;9838;49.384;8.292;2023-06-10T22:05:17;1.98;;;1.02;;
19404;SDS011;9838;49.384;8.292;2023-06-10T22:15:19;1.27;;;0.85;;
19404;SDS011;9838;49.384;8.292;2023-06-10T22:25:21;2.05;;;1.10;;
19404;SDS011;9838;49.384;8.292;2023-06-10T22:35:23;3.28;;;1.40;;
19404;SDS011;9838;49.384;8.292;2023-06-10T22:45:25;2.00;;;1.10;;
19404;SDS011;9838;49.384;8.292;2023-06-10T22:55:27;1.40;;;1.00;;
19404;SDS011;9838;49.384;8.292;2023-06-10T23:05:30;1.00;;;0.90;;
19404;SDS011;9838;49.384;8.292;2023-06-10T23:15:31;1.35;;;1.00;;
19404;SDS011;9838;49.384;8.292;2023-06-10T23:25:33;2.83;;;1.00;;
19404;SDS011;9838;49.384;8.292;2023-06-10T23:35:35;1.63;;;0.90;;
19404;SDS011;9838;49.384;8.292;2023-06-10T23:45:37;2.40;;;1.35;;
19404;SDS011;9838;49.384;8.292;2023-06-10T23:55:38;1.63;;;1.02;;
